createdAt,value
2022-08-22T00:00:30.557Z,14.23
2022-08-22T00:02:42.864Z,4.03
2022-08-22T00:02:48.244Z,11.48
2022-08-22T00:03:06.627Z,14.75
2022-08-22T00:05:38.407Z,14.00
2022-08-22T00:08:11.582Z,13.08
2022-08-22T00:10:45.006Z,13.78
2022-08-22T00:13:18.178Z,16.17
2022-08-22T00:15:51.389Z,15.98
2022-08-22T00:18:24.576Z,13.68
2022-08-22T00:20:57.760Z,16.23
2022-08-22T00:23:30.975Z,13.22
2022-08-22T00:26:04.235Z,17.23
2022-08-22T00:28:35.873Z,18.73
2022-08-22T00:31:09.155Z,13.38
2022-08-22T00:33:42.847Z,14.28
2022-08-22T00:36:16.140Z,13.58
2022-08-22T00:38:49.394Z,14.07
2022-08-22T00:41:22.718Z,14.20
2022-08-22T00:43:56.032Z,15.90
2022-08-22T00:46:29.294Z,15.40
2022-08-22T00:49:02.587Z,10.98
2022-08-22T00:51:34.264Z,15.93
2022-08-22T00:54:06.716Z,14.55
2022-08-22T00:56:38.734Z,15.00
2022-08-22T00:59:23.644Z,16.27
2022-08-22T01:01:45.039Z,16.77
2022-08-22T01:04:17.319Z,16.40
2022-08-22T01:06:50.510Z,15.65
2022-08-22T01:09:23.774Z,16.93
2022-08-22T01:11:53.717Z,16.15
2022-08-22T01:14:34.543Z,17.15
2022-08-22T01:17:01.222Z,15.13
2022-08-22T01:19:32.911Z,16.07
2022-08-22T01:22:06.095Z,12.60
2022-08-22T01:24:37.769Z,15.53
2022-08-22T01:27:12.399Z,14.03
2022-08-22T01:29:42.396Z,13.72
2022-08-22T01:32:16.624Z,14.00
2022-08-22T01:34:49.881Z,14.87
2022-08-22T01:37:21.432Z,11.78
2022-08-22T01:39:54.687Z,13.85
2022-08-22T01:42:27.921Z,14.18
2022-08-22T01:45:01.363Z,10.58
2022-08-22T01:47:36.506Z,10.13
2022-08-22T01:50:09.244Z,12.70
2022-08-22T01:52:40.845Z,13.18
2022-08-22T01:55:14.034Z,12.20
2022-08-22T01:57:47.315Z,13.65
2022-08-22T02:00:35.353Z,9.70
2022-08-22T02:02:55.447Z,10.28
2022-08-22T02:05:28.839Z,12.58
2022-08-22T02:08:02.104Z,10.53
2022-08-22T02:10:35.286Z,11.05
2022-08-22T02:13:09.344Z,10.50
2022-08-22T02:15:41.122Z,14.95
2022-08-22T02:18:15.647Z,11.12
2022-08-22T02:20:48.940Z,9.03
2022-08-22T02:23:26.280Z,11.65
2022-08-22T02:25:59.950Z,13.68
2022-08-22T02:28:33.213Z,12.00
2022-08-22T02:31:04.800Z,10.32
2022-08-22T02:33:37.959Z,10.93
2022-08-22T02:36:11.241Z,8.33
2022-08-22T02:38:44.420Z,13.85
2022-08-22T02:41:17.593Z,10.65
2022-08-22T02:43:50.752Z,9.93
2022-08-22T02:46:24.530Z,11.53
2022-08-22T02:48:58.437Z,12.53
2022-08-22T02:51:31.637Z,11.57
2022-08-22T02:54:05.633Z,13.15
2022-08-22T02:56:38.916Z,11.53
2022-08-22T02:59:14.066Z,12.10
2022-08-22T03:01:47.673Z,12.93
2022-08-22T03:04:20.982Z,11.75
2022-08-22T03:06:54.207Z,16.07
2022-08-22T03:09:27.497Z,12.55
2022-08-22T03:12:01.138Z,11.60
2022-08-22T03:14:32.816Z,11.33
2022-08-22T03:17:05.071Z,15.38
2022-08-22T03:19:38.325Z,13.32
2022-08-22T03:22:11.588Z,12.95
2022-08-22T03:24:44.768Z,11.78
2022-08-22T03:27:31.412Z,13.98
2022-08-22T03:29:53.212Z,12.58
2022-08-22T03:32:26.836Z,11.12
2022-08-22T03:35:00.159Z,12.63
2022-08-22T03:37:31.849Z,15.08
2022-08-22T03:40:05.422Z,15.03
2022-08-22T03:42:38.844Z,13.32
2022-08-22T03:45:12.278Z,11.22
2022-08-22T03:47:46.008Z,11.65
2022-08-22T03:50:22.094Z,10.15
2022-08-22T03:52:52.479Z,11.57
2022-08-22T03:55:25.985Z,11.73
2022-08-22T03:57:57.884Z,9.70
2022-08-22T04:00:31.181Z,11.25
2022-08-22T04:03:06.904Z,13.03
2022-08-22T04:05:46.344Z,9.00
2022-08-22T04:08:17.968Z,10.43
2022-08-22T04:10:52.851Z,13.20
2022-08-22T04:13:26.333Z,11.33
2022-08-22T04:15:59.898Z,11.12
2022-08-22T04:18:33.385Z,14.95
2022-08-22T04:21:05.048Z,12.10
2022-08-22T04:23:41.157Z,14.00
2022-08-22T04:26:13.151Z,11.33
2022-08-22T04:28:46.779Z,12.53
2022-08-22T04:31:20.118Z,13.08
2022-08-22T04:33:52.159Z,9.85
2022-08-22T04:36:25.484Z,11.70
2022-08-22T04:38:58.780Z,10.80
2022-08-22T04:41:31.942Z,11.43
2022-08-22T04:44:05.208Z,10.98
2022-08-22T04:46:39.777Z,12.58
2022-08-22T04:49:13.121Z,12.70
2022-08-22T04:51:46.616Z,11.93
2022-08-22T04:54:20.074Z,11.15
2022-08-22T04:56:53.383Z,10.60
2022-08-22T04:59:25.671Z,8.88
2022-08-22T05:02:00.469Z,9.55
2022-08-22T05:04:33.904Z,10.00
2022-08-22T05:07:07.175Z,7.75
2022-08-22T05:09:40.498Z,8.95
2022-08-22T05:12:15.046Z,9.63
2022-08-22T05:14:48.495Z,9.55
2022-08-22T05:17:22.501Z,9.08
2022-08-22T05:19:55.802Z,9.98
2022-08-22T05:22:29.124Z,7.90
2022-08-22T05:25:02.530Z,8.78
2022-08-22T05:27:35.892Z,9.78
2022-08-22T05:30:10.501Z,9.50
2022-08-22T05:32:43.971Z,10.38
2022-08-22T05:35:17.307Z,8.40
2022-08-22T05:37:51.002Z,7.28
2022-08-22T05:40:25.719Z,11.70
2022-08-22T05:42:58.495Z,12.68
2022-08-22T05:45:30.926Z,10.93
2022-08-22T05:48:05.503Z,8.80
2022-08-22T05:50:37.396Z,14.80
2022-08-22T05:53:10.663Z,9.80
2022-08-22T05:55:44.058Z,12.23
2022-08-22T05:58:20.036Z,9.03
2022-08-22T06:00:53.301Z,13.40
2022-08-22T06:03:24.911Z,15.95
2022-08-22T06:05:58.284Z,12.58
2022-08-22T06:08:31.443Z,10.95
2022-08-22T06:11:04.742Z,11.25
2022-08-22T06:13:36.402Z,12.20
2022-08-22T06:16:11.234Z,11.78
2022-08-22T06:18:45.558Z,9.58
2022-08-22T06:21:18.923Z,11.95
2022-08-22T06:23:52.086Z,10.78
2022-08-22T06:26:23.960Z,11.78
2022-08-22T06:28:57.163Z,12.20
2022-08-22T06:31:30.436Z,9.23
2022-08-22T06:34:03.607Z,9.80
2022-08-22T06:36:37.131Z,10.50
2022-08-22T06:39:10.393Z,11.83
2022-08-22T06:41:43.805Z,10.45
2022-08-22T06:44:17.400Z,13.28
2022-08-22T06:46:50.710Z,10.15
2022-08-22T06:49:24.250Z,8.88
2022-08-22T06:51:56.879Z,9.25
2022-08-22T06:54:34.151Z,12.20
2022-08-22T06:57:03.382Z,10.85
2022-08-22T06:59:36.806Z,7.05
2022-08-22T07:02:10.450Z,11.45
2022-08-22T07:04:41.577Z,9.00
2022-08-22T07:07:12.432Z,11.48
2022-08-22T07:09:44.202Z,8.78
2022-08-22T07:12:17.916Z,7.30
2022-08-22T07:14:51.062Z,12.05
2022-08-22T07:17:24.837Z,11.55
2022-08-22T07:19:58.100Z,12.60
2022-08-22T07:22:31.880Z,9.80
2022-08-22T07:25:05.098Z,11.05
2022-08-22T07:27:38.776Z,9.08
2022-08-22T07:30:13.230Z,14.20
2022-08-22T07:32:46.530Z,11.35
2022-08-22T07:35:19.792Z,14.80
2022-08-22T07:37:53.194Z,14.87
2022-08-22T07:40:26.683Z,11.40
2022-08-22T07:42:59.912Z,11.35
2022-08-22T07:45:33.178Z,12.58
2022-08-22T07:48:06.787Z,10.40
2022-08-22T07:50:40.642Z,12.18
2022-08-22T07:53:15.604Z,10.95
2022-08-22T07:55:49.765Z,11.97
2022-08-22T07:58:21.865Z,12.95
2022-08-22T08:00:53.901Z,12.43
2022-08-22T08:03:27.138Z,14.35
2022-08-22T08:05:59.043Z,7.65
2022-08-22T08:08:32.335Z,11.08
2022-08-22T08:11:05.150Z,9.65
2022-08-22T08:13:38.450Z,7.75
2022-08-22T08:16:11.955Z,10.08
2022-08-22T08:18:44.630Z,7.70
2022-08-22T08:21:21.102Z,11.97
2022-08-22T08:26:23.967Z,7.58
2022-08-22T08:28:57.876Z,8.15
2022-08-22T08:31:29.657Z,8.50
2022-08-22T08:34:02.930Z,7.17
2022-08-22T08:36:34.557Z,7.33
2022-08-22T08:39:09.315Z,9.93
2022-08-22T08:41:40.987Z,6.85
2022-08-22T08:44:12.623Z,8.90
2022-08-22T08:46:55.683Z,5.92
2022-08-22T08:49:21.058Z,7.65
2022-08-22T08:51:55.373Z,7.72
2022-08-22T08:54:28.802Z,7.25
2022-08-22T08:57:04.438Z,8.20
2022-08-22T08:59:40.428Z,11.48
2022-08-22T09:02:13.745Z,11.10
2022-08-22T09:04:46.541Z,8.25
2022-08-22T09:07:18.185Z,10.28
2022-08-22T09:12:24.710Z,8.13
2022-08-22T09:14:58.024Z,9.88
2022-08-22T09:17:37.796Z,8.33
2022-08-22T09:20:15.545Z,8.38
2022-08-22T09:22:49.856Z,11.40
2022-08-22T09:25:20.492Z,11.33
2022-08-22T09:27:55.218Z,12.82
2022-08-22T09:30:29.017Z,10.13
2022-08-22T09:33:03.988Z,11.57
2022-08-22T09:35:37.750Z,8.95
2022-08-22T09:38:18.717Z,10.72
2022-08-22T09:40:57.663Z,10.43
2022-08-22T09:43:30.662Z,11.53
2022-08-22T09:46:08.366Z,11.48
2022-08-22T09:48:42.493Z,9.73
2022-08-22T09:51:33.096Z,11.78
2022-08-22T09:53:50.993Z,9.33
2022-08-22T09:56:26.085Z,11.45
2022-08-22T09:59:01.727Z,12.82
2022-08-22T10:01:33.746Z,12.58
2022-08-22T10:04:20.099Z,9.75
2022-08-22T10:09:26.424Z,12.55
2022-08-22T10:11:58.896Z,11.53
2022-08-22T10:14:32.405Z,10.80
2022-08-22T10:17:04.174Z,12.73
2022-08-22T10:19:41.554Z,10.58
2022-08-22T10:24:51.231Z,10.75
2022-08-22T10:27:24.513Z,8.68
2022-08-22T10:29:59.091Z,8.53
2022-08-22T10:32:31.998Z,10.28
2022-08-22T10:35:06.348Z,6.62
2022-08-22T10:37:51.499Z,8.65
2022-08-22T10:40:25.042Z,9.95
2022-08-22T10:42:59.372Z,7.95
2022-08-22T10:45:35.957Z,10.28
2022-08-22T10:48:09.865Z,9.60
2022-08-22T10:50:43.039Z,8.35
2022-08-22T10:53:16.266Z,7.67
2022-08-22T10:55:49.054Z,6.35
2022-08-22T10:58:22.783Z,7.72
2022-08-22T11:00:59.281Z,6.37
2022-08-22T11:06:07.017Z,7.83
2022-08-22T11:08:42.912Z,7.35
2022-08-22T11:11:17.902Z,8.63
2022-08-22T11:13:50.098Z,6.60
2022-08-22T11:16:21.835Z,8.28
2022-08-22T11:19:02.084Z,8.13
2022-08-22T11:21:30.352Z,5.90
2022-08-22T11:24:03.533Z,7.72
2022-08-22T11:26:47.019Z,10.08
2022-08-22T11:29:13.675Z,8.20
2022-08-22T11:31:47.290Z,8.40
2022-08-22T11:34:20.697Z,9.50
2022-08-22T11:36:54.305Z,11.90
2022-08-22T11:39:26.326Z,10.88
2022-08-22T11:41:59.878Z,7.00
2022-08-22T11:44:50.416Z,11.50
2022-08-22T11:47:15.166Z,9.03
2022-08-22T11:49:48.537Z,8.68
2022-08-22T11:52:20.823Z,11.10
2022-08-22T11:54:54.243Z,10.48
2022-08-22T11:57:27.612Z,8.05
2022-08-22T12:00:00.257Z,9.30
2022-08-22T12:02:34.179Z,11.08
2022-08-22T12:05:08.029Z,11.33
2022-08-22T12:07:41.297Z,10.68
2022-08-22T12:10:14.957Z,13.00
2022-08-22T12:12:46.804Z,13.70
2022-08-22T12:15:20.143Z,9.68
2022-08-22T12:18:01.251Z,7.72
2022-08-22T12:20:31.682Z,11.08
2022-08-22T12:23:03.463Z,9.85
2022-08-22T12:25:53.503Z,10.82
2022-08-22T12:28:27.371Z,11.03
2022-08-22T12:32:29.397Z,10.58
2022-08-22T12:39:44.239Z,11.35
2022-08-22T12:42:19.481Z,7.30
2022-08-22T12:44:55.085Z,9.55
2022-08-22T12:47:28.255Z,9.53
2022-08-22T12:50:05.594Z,10.30
2022-08-22T12:55:24.919Z,9.08
2022-08-22T12:58:01.087Z,9.20
2022-08-22T13:00:35.715Z,10.18
2022-08-22T13:03:10.750Z,10.18
2022-08-22T13:05:43.620Z,9.50
2022-08-22T13:08:18.303Z,9.53
2022-08-22T13:10:51.902Z,7.45
2022-08-22T13:13:31.574Z,12.95
2022-08-22T13:16:01.087Z,10.72
2022-08-22T13:18:35.830Z,11.00
2022-08-22T13:21:24.303Z,7.30
2022-08-22T13:23:58.865Z,10.65
2022-08-22T13:26:34.423Z,8.40
2022-08-22T13:29:27.459Z,9.53
2022-08-22T13:31:45.811Z,10.15
2022-08-22T13:34:20.341Z,11.15
2022-08-22T13:36:57.777Z,12.75
2022-08-22T13:39:29.907Z,15.08
2022-08-22T13:42:03.367Z,12.75
2022-08-22T13:44:38.162Z,16.07
2022-08-22T13:47:14.811Z,9.43
2022-08-22T13:49:50.821Z,10.90
2022-08-22T13:52:29.401Z,13.05
2022-08-22T13:54:59.928Z,9.50
2022-08-22T13:57:33.316Z,10.43
2022-08-22T14:00:06.591Z,11.22
2022-08-22T14:02:43.310Z,12.10
2022-08-22T14:05:15.423Z,13.28
2022-08-22T14:07:59.673Z,12.78
2022-08-22T14:10:23.565Z,11.43
2022-08-22T14:12:56.769Z,10.45
2022-08-22T14:15:32.274Z,13.15
2022-08-22T14:18:05.093Z,11.40
2022-08-22T14:20:38.078Z,13.43
2022-08-22T14:23:14.564Z,10.78
2022-08-22T14:25:46.515Z,13.25
2022-08-22T14:28:19.707Z,10.95
2022-08-22T14:31:00.915Z,11.78
2022-08-22T14:33:30.585Z,12.93
2022-08-22T14:36:03.966Z,10.43
2022-08-22T14:38:46.554Z,13.50
2022-08-22T14:41:17.723Z,10.75
2022-08-22T14:43:50.850Z,12.50
2022-08-22T14:46:26.582Z,11.80
2022-08-22T14:49:03.063Z,14.40
2022-08-22T14:51:43.658Z,10.48
2022-08-22T14:54:21.632Z,9.85
2022-08-22T14:56:51.623Z,10.05
2022-08-22T14:59:28.377Z,10.32
2022-08-22T15:02:04.279Z,11.88
2022-08-22T15:04:37.708Z,10.85
2022-08-22T15:07:15.076Z,13.83
2022-08-22T15:09:49.344Z,12.03
2022-08-22T15:12:27.419Z,13.20
2022-08-22T15:15:00.295Z,12.95
2022-08-22T15:17:36.526Z,11.30
2022-08-22T15:20:09.806Z,12.37
2022-08-22T15:22:47.831Z,16.00
2022-08-22T15:25:20.743Z,14.38
2022-08-22T15:27:55.139Z,12.43
2022-08-22T15:30:30.070Z,11.28
2022-08-22T15:33:06.412Z,12.58
2022-08-22T15:35:39.828Z,12.30
2022-08-22T15:38:14.398Z,12.40
2022-08-22T15:40:48.877Z,10.33
2022-08-22T15:43:23.391Z,12.90
2022-08-22T15:45:56.568Z,12.70
2022-08-22T15:48:49.202Z,11.70
2022-08-22T15:51:20.538Z,9.90
2022-08-22T15:53:55.180Z,15.65
2022-08-22T15:56:39.296Z,11.08
2022-08-22T16:05:04.033Z,12.73
2022-08-22T16:07:37.319Z,14.10
2022-08-22T16:10:10.928Z,13.20
2022-08-22T16:12:44.316Z,11.43
2022-08-22T16:15:20.072Z,14.53
2022-08-22T16:17:53.295Z,10.32
2022-08-22T16:20:22.967Z,17.85
2022-08-22T16:22:56.354Z,12.00
2022-08-22T16:25:32.277Z,9.83
2022-08-22T16:28:04.718Z,11.63
2022-08-22T16:30:40.926Z,13.60
2022-08-22T16:33:18.356Z,10.93
2022-08-22T16:35:54.411Z,14.00
2022-08-22T16:38:21.721Z,11.10
2022-08-22T16:40:55.337Z,10.78
2022-08-22T16:43:32.067Z,11.18
2022-08-22T16:46:11.463Z,10.38
2022-08-22T16:48:43.116Z,13.20
2022-08-22T16:51:16.507Z,12.90
2022-08-22T16:57:24.349Z,11.53
2022-08-22T16:59:43.179Z,10.58
2022-08-22T17:02:29.720Z,13.32
2022-08-22T17:05:02.781Z,9.03
2022-08-22T17:07:44.992Z,15.75
2022-08-22T17:10:24.925Z,12.05
2022-08-22T17:13:00.456Z,14.15
2022-08-22T17:15:33.866Z,12.88
2022-08-22T17:18:18.329Z,14.10
2022-08-22T17:21:09.448Z,14.35
2022-08-22T17:32:15.629Z,17.77
2022-08-22T17:34:56.482Z,14.38
2022-08-22T17:37:29.829Z,15.43
2022-08-22T17:40:04.960Z,14.98
2022-08-22T17:42:47.197Z,15.25
2022-08-22T17:45:18.989Z,12.07
2022-08-22T17:47:50.973Z,15.63
2022-08-22T17:53:19.103Z,12.60
2022-08-22T18:01:33.503Z,13.05
2022-08-22T18:06:56.215Z,13.38
2022-08-22T18:09:31.304Z,10.08
2022-08-22T18:12:11.938Z,10.75
2022-08-22T18:17:44.254Z,11.18
2022-08-22T18:20:22.803Z,9.03
2022-08-22T18:23:01.592Z,5.95
2022-08-22T18:25:36.028Z,6.37
2022-08-22T18:28:10.785Z,7.97
2022-08-22T18:30:44.333Z,6.50
2022-08-22T18:33:18.253Z,4.85
2022-08-22T18:35:53.794Z,4.80
2022-08-22T18:38:26.568Z,5.15
2022-08-22T18:41:00.055Z,5.00
2022-08-22T18:43:35.829Z,5.37
2022-08-22T18:46:07.938Z,4.37
2022-08-22T18:48:59.495Z,4.60
2022-08-22T18:51:24.614Z,4.33
2022-08-22T18:54:00.414Z,4.37
2022-08-22T18:56:37.472Z,4.70
2022-08-22T18:59:10.564Z,3.37
2022-08-22T19:01:44.817Z,3.37
2022-08-22T19:04:18.391Z,3.05
2022-08-22T19:08:53.002Z,7.42
2022-08-22T19:12:10.288Z,5.50
2022-08-22T19:14:43.580Z,6.83
2022-08-22T19:17:17.518Z,3.75
2022-08-22T19:19:50.569Z,4.08
2022-08-22T19:22:23.379Z,2.95
2022-08-22T19:24:57.676Z,6.53
2022-08-22T19:27:34.152Z,4.47
2022-08-22T19:30:07.048Z,6.42
2022-08-22T19:32:40.362Z,3.37
2022-08-22T19:35:15.031Z,3.62
2022-08-22T19:37:48.380Z,3.72
2022-08-22T19:40:21.622Z,3.22
2022-08-22T19:42:54.118Z,7.05
2022-08-22T19:45:29.020Z,3.05
2022-08-22T19:48:02.587Z,5.37
2022-08-22T19:50:36.596Z,4.75
2022-08-22T19:53:08.744Z,3.30
2022-08-22T19:55:38.979Z,4.58
2022-08-22T19:58:12.468Z,2.67
2022-08-22T20:00:44.377Z,2.80
2022-08-22T20:03:18.393Z,4.25
2022-08-22T20:05:56.559Z,4.70
2022-08-22T20:08:26.179Z,5.20
2022-08-22T20:10:59.952Z,3.77
2022-08-22T20:13:33.126Z,2.50
2022-08-22T20:16:04.816Z,4.97
2022-08-22T20:19:05.051Z,4.00
2022-08-22T20:21:10.503Z,3.77
2022-08-22T20:23:41.365Z,5.72
2022-08-22T20:26:13.514Z,4.15
2022-08-22T20:28:47.174Z,3.95
2022-08-22T20:31:20.916Z,2.95
2022-08-22T20:33:54.459Z,3.35
2022-08-22T20:36:29.321Z,2.62
2022-08-22T20:39:02.224Z,3.30
2022-08-22T20:41:36.835Z,3.20
2022-08-22T20:44:11.495Z,3.27
2022-08-22T20:46:44.003Z,4.62
2022-08-22T20:49:18.491Z,3.58
2022-08-22T20:51:51.962Z,5.12
2022-08-22T20:54:25.663Z,3.65
2022-08-22T20:56:59.260Z,4.17
2022-08-22T20:59:32.672Z,4.22
2022-08-22T21:02:06.172Z,4.10
2022-08-22T21:04:42.680Z,4.90
2022-08-22T21:07:12.367Z,4.53
2022-08-22T21:09:48.520Z,4.35
2022-08-22T21:12:19.499Z,4.95
2022-08-22T21:14:52.194Z,4.33
2022-08-22T21:17:25.247Z,5.15
2022-08-22T21:20:01.767Z,3.77
2022-08-22T21:22:36.098Z,4.80
2022-08-22T21:25:10.284Z,4.33
2022-08-22T21:27:40.927Z,3.20
2022-08-22T21:30:16.805Z,3.17
2022-08-22T21:32:59.215Z,4.50
2022-08-22T21:35:32.642Z,4.75
2022-08-22T21:38:04.369Z,3.20
2022-08-22T21:40:37.676Z,3.75
2022-08-22T21:43:09.539Z,4.08
2022-08-22T21:45:41.190Z,3.27
2022-08-22T21:48:14.585Z,4.67
2022-08-22T21:50:45.617Z,5.12
2022-08-22T21:53:18.819Z,4.33
2022-08-22T21:55:49.871Z,5.47
2022-08-22T21:58:35.510Z,4.55
2022-08-22T22:00:55.046Z,5.35
2022-08-22T22:03:29.710Z,5.62
2022-08-22T22:06:02.817Z,4.40
2022-08-22T22:08:35.086Z,4.62
2022-08-22T22:11:09.149Z,3.75
2022-08-22T22:13:41.447Z,5.97
2022-08-22T22:16:14.040Z,3.50
2022-08-22T22:18:45.072Z,4.67
2022-08-22T22:21:16.030Z,4.42
2022-08-22T22:23:47.274Z,3.98
2022-08-22T22:26:18.725Z,5.00
2022-08-22T22:28:51.465Z,5.33
2022-08-22T22:31:22.564Z,4.90
2022-08-22T22:33:53.487Z,3.98
2022-08-22T22:36:26.791Z,5.50
2022-08-22T22:38:58.028Z,6.08
2022-08-22T22:41:29.172Z,6.72
2022-08-22T22:44:00.131Z,3.95
2022-08-22T22:46:34.551Z,5.75
2022-08-22T22:49:05.985Z,6.87
2022-08-22T22:51:37.036Z,5.55
2022-08-22T22:54:08.094Z,6.67
2022-08-22T22:56:40.280Z,6.65
2022-08-22T22:59:13.374Z,6.80
2022-08-22T23:01:47.048Z,6.40
2022-08-22T23:04:18.892Z,4.10
2022-08-22T23:06:49.841Z,6.45
2022-08-22T23:09:20.678Z,9.55
2022-08-22T23:11:53.055Z,7.22
2022-08-22T23:14:23.777Z,6.95
2022-08-22T23:16:54.919Z,8.45
2022-08-22T23:19:26.382Z,7.37
2022-08-22T23:21:59.787Z,6.00
2022-08-22T23:24:32.576Z,6.75
2022-08-22T23:27:03.639Z,7.65
2022-08-22T23:29:35.064Z,6.87
2022-08-22T23:32:07.218Z,9.70
2022-08-22T23:34:41.223Z,10.50
2022-08-22T23:37:12.170Z,7.17
2022-08-22T23:39:43.268Z,7.58
2022-08-22T23:42:16.169Z,9.23
2022-08-22T23:44:48.291Z,9.55
2022-08-22T23:47:19.752Z,10.85
2022-08-22T23:49:50.846Z,12.23
2022-08-22T23:52:22.197Z,8.40
2022-08-22T23:54:55.529Z,12.95
2022-08-22T23:57:27.733Z,9.80
2022-08-22T23:59:58.566Z,11.53
